sensor_id;sensor_type;location;lat;lon;timestamp;pressure;altitude;pressure_sealevel;temperature;humidity
27712;BME280;2377;51.734;8.950;2022-12-05T00:00:51;97799.63;;;1.99;97.28
27712;BME280;2377;51.734;8.950;2022-12-05T00:03:19;97798.81;;;2.07;97.46
27712;BME280;2377;51.734;8.950;2022-12-05T00:05:46;97798.66;;;2.08;97.01
27712;BME280;2377;51.734;8.950;2022-12-05T00:08:15;97797.25;;;2.06;96.55
27712;BME280;2377;51.734;8.950;2022-12-05T00:10:42;97796.47;;;2.05;96.89
27712;BME280;2377;51.734;8.950;2022-12-05T00:13:10;97803.72;;;2.08;96.72
27712;BME280;2377;51.734;8.950;2022-12-05T00:15:39;97798.81;;;2.07;96.87
27712;BME280;2377;51.734;8.950;2022-12-05T00:18:06;97799.78;;;2.06;97.00
27712;BME280;2377;51.734;8.950;2022-12-05T00:20:34;97807.19;;;2.07;97.25
27712;BME280;2377;51.734;8.950;2022-12-05T00:23:01;97799.44;;;2.09;96.75
27712;BME280;2377;51.734;8.950;2022-12-05T00:25:29;97796.00;;;2.10;96.81
27712;BME280;2377;51.734;8.950;2022-12-05T00:27:57;97798.34;;;2.11;96.71
27712;BME280;2377;51.734;8.950;2022-12-05T00:30:24;97793.31;;;2.11;96.97
27712;BME280;2377;51.734;8.950;2022-12-05T00:32:51;97803.88;;;2.15;96.57
27712;BME280;2377;51.734;8.950;2022-12-05T00:35:18;97800.09;;;2.11;96.41
27712;BME280;2377;51.734;8.950;2022-12-05T00:37:45;97797.56;;;2.11;97.11
27712;BME280;2377;51.734;8.950;2022-12-05T00:40:13;97793.31;;;2.11;96.53
27712;BME280;2377;51.734;8.950;2022-12-05T00:42:41;97785.75;;;2.11;97.12
27712;BME280;2377;51.734;8.950;2022-12-05T00:45:10;97790.78;;;2.11;96.50
27712;BME280;2377;51.734;8.950;2022-12-05T00:47:37;97787.47;;;2.11;96.65
27712;BME280;2377;51.734;8.950;2022-12-05T00:50:06;97780.56;;;2.13;96.63
27712;BME280;2377;51.734;8.950;2022-12-05T00:52:33;97781.31;;;2.14;96.99
27712;BME280;2377;51.734;8.950;2022-12-05T00:55:01;97790.78;;;2.11;96.73
27712;BME280;2377;51.734;8.950;2022-12-05T00:57:28;97786.56;;;2.12;97.32
27712;BME280;2377;51.734;8.950;2022-12-05T00:59:56;97788.91;;;2.14;97.39
27712;BME280;2377;51.734;8.950;2022-12-05T01:02:24;97787.63;;;2.18;97.26
27712;BME280;2377;51.734;8.950;2022-12-05T01:04:51;97783.06;;;2.21;96.67
27712;BME280;2377;51.734;8.950;2022-12-05T01:07:18;97786.06;;;2.25;97.15
27712;BME280;2377;51.734;8.950;2022-12-05T01:09:45;97789.53;;;2.24;96.12
27712;BME280;2377;51.734;8.950;2022-12-05T01:12:13;97794.72;;;2.22;97.11
27712;BME280;2377;51.734;8.950;2022-12-05T01:14:40;97792.06;;;2.24;97.09
27712;BME280;2377;51.734;8.950;2022-12-05T01:17:09;97786.06;;;2.25;96.52
27712;BME280;2377;51.734;8.950;2022-12-05T01:19:36;97791.09;;;2.25;97.06
27712;BME280;2377;51.734;8.950;2022-12-05T01:22:03;97790.94;;;2.26;96.28
27712;BME280;2377;51.734;8.950;2022-12-05T01:24:31;97788.25;;;2.28;96.69
27712;BME280;2377;51.734;8.950;2022-12-05T01:26:58;97783.19;;;2.28;95.96
27712;BME280;2377;51.734;8.950;2022-12-05T01:29:25;97779.28;;;2.25;96.12
27712;BME280;2377;51.734;8.950;2022-12-05T01:31:54;97788.56;;;2.25;96.68
27712;BME280;2377;51.734;8.950;2022-12-05T01:34:22;97788.44;;;2.26;96.77
27712;BME280;2377;51.734;8.950;2022-12-05T01:36:50;97784.78;;;2.29;96.29
27712;BME280;2377;51.734;8.950;2022-12-05T01:39:17;97785.56;;;2.29;96.65
27712;BME280;2377;51.734;8.950;2022-12-05T01:41:48;97784.94;;;2.27;96.50
27712;BME280;2377;51.734;8.950;2022-12-05T01:45:02;97792.06;;;2.24;96.68
27712;BME280;2377;51.734;8.950;2022-12-05T01:47:34;97782.75;;;2.24;96.11
27712;BME280;2377;51.734;8.950;2022-12-05T01:50:06;97783.53;;;2.25;96.96
27712;BME280;2377;51.734;8.950;2022-12-05T01:52:34;97786.69;;;2.27;96.70
27712;BME280;2377;51.734;8.950;2022-12-05T01:55:09;97785.72;;;2.28;97.03
27712;BME280;2377;51.734;8.950;2022-12-05T01:57:38;97788.09;;;2.29;96.97
27712;BME280;2377;51.734;8.950;2022-12-05T02:00:11;97784.47;;;2.32;96.04
27712;BME280;2377;51.734;8.950;2022-12-05T02:02:44;97786.84;;;2.33;96.20
27712;BME280;2377;51.734;8.950;2022-12-05T02:05:20;97791.88;;;2.33;96.30
27712;BME280;2377;51.734;8.950;2022-12-05T02:07:48;97789.19;;;2.35;96.18
27712;BME280;2377;51.734;8.950;2022-12-05T02:10:16;97788.88;;;2.30;96.48
27712;BME280;2377;51.734;8.950;2022-12-05T02:12:44;97793.13;;;2.29;96.35
27712;BME280;2377;51.734;8.950;2022-12-05T02:15:28;97795.84;;;2.20;95.92
27712;BME280;2377;51.734;8.950;2022-12-05T02:18:20;97794.72;;;2.22;96.94
27712;BME280;2377;51.734;8.950;2022-12-05T02:21:16;97796.28;;;2.23;96.67
27712;BME280;2377;51.734;8.950;2022-12-05T02:24:16;97801.97;;;2.25;96.64
27712;BME280;2377;51.734;8.950;2022-12-05T02:27:10;97795.66;;;2.29;96.46
27712;BME280;2377;51.734;8.950;2022-12-05T02:30:03;97802.59;;;2.27;96.97
27712;BME280;2377;51.734;8.950;2022-12-05T02:32:50;97800.84;;;2.28;96.57
27712;BME280;2377;51.734;8.950;2022-12-05T02:35:36;97793.28;;;2.28;97.00
27712;BME280;2377;51.734;8.950;2022-12-05T02:38:20;97795.03;;;2.27;96.50
27712;BME280;2377;51.734;8.950;2022-12-05T02:41:01;97794.09;;;2.28;97.28
27712;BME280;2377;51.734;8.950;2022-12-05T02:43:36;97795.50;;;2.31;97.17
27712;BME280;2377;51.734;8.950;2022-12-05T02:46:12;97794.09;;;2.28;97.29
27712;BME280;2377;51.734;8.950;2022-12-05T02:48:45;97793.13;;;2.29;96.61
27712;BME280;2377;51.734;8.950;2022-12-05T02:51:18;97793.78;;;2.31;97.15
27712;BME280;2377;51.734;8.950;2022-12-05T02:53:49;97798.03;;;2.31;97.01
27712;BME280;2377;51.734;8.950;2022-12-05T02:56:18;97791.41;;;2.30;96.99
27712;BME280;2377;51.734;8.950;2022-12-05T02:58:52;97787.13;;;2.30;96.95
27712;BME280;2377;51.734;8.950;2022-12-05T03:01:26;97793.78;;;2.31;96.81
27712;BME280;2377;51.734;8.950;2022-12-05T03:03:57;97796.28;;;2.31;96.92
27712;BME280;2377;51.734;8.950;2022-12-05T03:06:30;97796.28;;;2.31;97.01
27712;BME280;2377;51.734;8.950;2022-12-05T03:09:02;97802.25;;;2.30;96.89
27712;BME280;2377;51.734;8.950;2022-12-05T03:11:38;97804.19;;;2.28;96.45
27712;BME280;2377;51.734;8.950;2022-12-05T03:14:13;97807.63;;;2.27;96.59
27712;BME280;2377;51.734;8.950;2022-12-05T03:16:48;97800.06;;;2.27;96.41
27712;BME280;2377;51.734;8.950;2022-12-05T03:19:23;97805.13;;;2.27;96.75
27712;BME280;2377;51.734;8.950;2022-12-05T03:21:57;97797.22;;;2.30;96.77
27712;BME280;2377;51.734;8.950;2022-12-05T03:24:25;97797.41;;;2.29;97.14
27712;BME280;2377;51.734;8.950;2022-12-05T03:27:05;97786.53;;;2.28;96.60
27712;BME280;2377;51.734;8.950;2022-12-05T03:29:41;97797.56;;;2.27;97.01
27712;BME280;2377;51.734;8.950;2022-12-05T03:32:21;97792.50;;;2.27;97.22
27712;BME280;2377;51.734;8.950;2022-12-05T03:35:02;97797.56;;;2.27;97.21
27712;BME280;2377;51.734;8.950;2022-12-05T03:37:46;97799.28;;;2.27;97.59
27712;BME280;2377;51.734;8.950;2022-12-05T03:40:28;97808.28;;;2.29;96.59
27712;BME280;2377;51.734;8.950;2022-12-05T03:43:05;97801.03;;;2.26;96.35
27712;BME280;2377;51.734;8.950;2022-12-05T03:45:42;97791.72;;;2.27;97.35
27712;BME280;2377;51.734;8.950;2022-12-05T03:48:24;97795.34;;;2.24;96.42
27712;BME280;2377;51.734;8.950;2022-12-05T03:50:56;97793.63;;;2.25;96.59
27712;BME280;2377;51.734;8.950;2022-12-05T03:53:30;97798.66;;;2.25;96.76
27712;BME280;2377;51.734;8.950;2022-12-05T03:56:04;97796.91;;;2.25;97.03
27712;BME280;2377;51.734;8.950;2022-12-05T03:58:40;97796.00;;;2.26;96.83
27712;BME280;2377;51.734;8.950;2022-12-05T04:01:12;97801.81;;;2.27;96.71
27712;BME280;2377;51.734;8.950;2022-12-05T04:03:48;97793.28;;;2.28;97.39
27712;BME280;2377;51.734;8.950;2022-12-05T04:06:22;97794.41;;;2.25;97.24
27712;BME280;2377;51.734;8.950;2022-12-05T04:08:57;97792.84;;;2.24;97.42
27712;BME280;2377;51.734;8.950;2022-12-05T04:11:32;97795.22;;;2.26;97.54
27712;BME280;2377;51.734;8.950;2022-12-05T04:14:05;97796.91;;;2.25;96.86
27712;BME280;2377;51.734;8.950;2022-12-05T04:16:41;97800.06;;;2.27;96.66
27712;BME280;2377;51.734;8.950;2022-12-05T04:19:32;97801.66;;;2.28;97.72
27712;BME280;2377;51.734;8.950;2022-12-05T04:22:17;97789.66;;;2.30;96.87
27712;BME280;2377;51.734;8.950;2022-12-05T04:24:45;97795.34;;;2.32;96.72
27712;BME280;2377;51.734;8.950;2022-12-05T04:27:38;97785.41;;;2.23;97.28
27712;BME280;2377;51.734;8.950;2022-12-05T04:30:10;97799.00;;;2.22;97.10
27712;BME280;2377;51.734;8.950;2022-12-05T04:32:44;97790.16;;;2.18;96.82
27712;BME280;2377;51.734;8.950;2022-12-05T04:35:19;97797.25;;;2.14;97.13
27712;BME280;2377;51.734;8.950;2022-12-05T04:37:54;97798.84;;;2.15;97.16
27712;BME280;2377;51.734;8.950;2022-12-05T04:40:33;97797.25;;;2.14;97.88
27712;BME280;2377;51.734;8.950;2022-12-05T04:43:04;97801.34;;;2.15;97.40
27712;BME280;2377;51.734;8.950;2022-12-05T04:45:34;97803.53;;;2.18;97.31
27712;BME280;2377;51.734;8.950;2022-12-05T04:48:11;97801.97;;;2.17;97.80
27712;BME280;2377;51.734;8.950;2022-12-05T04:50:43;97804.19;;;2.20;97.54
27712;BME280;2377;51.734;8.950;2022-12-05T04:53:14;97806.56;;;2.22;97.64
27712;BME280;2377;51.734;8.950;2022-12-05T04:55:48;97804.81;;;2.22;97.53
27712;BME280;2377;51.734;8.950;2022-12-05T04:58:22;97802.13;;;2.24;97.48
27712;BME280;2377;51.734;8.950;2022-12-05T05:00:56;97805.28;;;2.26;97.36
27712;BME280;2377;51.734;8.950;2022-12-05T05:03:32;97793.13;;;2.29;97.69
27712;BME280;2377;51.734;8.950;2022-12-05T05:06:03;97793.78;;;2.31;97.55
27712;BME280;2377;51.734;8.950;2022-12-05T05:08:31;97794.41;;;2.33;97.19
27712;BME280;2377;51.734;8.950;2022-12-05T05:11:10;97791.56;;;2.37;97.37
27712;BME280;2377;51.734;8.950;2022-12-05T05:13:39;97796.59;;;2.37;97.39
27712;BME280;2377;51.734;8.950;2022-12-05T05:16:06;97798.97;;;2.38;97.25
27712;BME280;2377;51.734;8.950;2022-12-05T05:18:35;97803.22;;;2.38;97.15
27712;BME280;2377;51.734;8.950;2022-12-05T05:21:04;97812.69;;;2.36;96.30
27712;BME280;2377;51.734;8.950;2022-12-05T05:23:31;97802.75;;;2.34;96.56
27712;BME280;2377;51.734;8.950;2022-12-05T05:25:58;97811.72;;;2.37;97.32
27712;BME280;2377;51.734;8.950;2022-12-05T05:28:25;97806.69;;;2.37;97.08
27712;BME280;2377;51.734;8.950;2022-12-05T05:30:52;97813.31;;;2.38;96.75
27712;BME280;2377;51.734;8.950;2022-12-05T05:33:20;97813.00;;;2.41;97.30
27712;BME280;2377;51.734;8.950;2022-12-05T05:35:47;97806.34;;;2.40;96.25
27712;BME280;2377;51.734;8.950;2022-12-05T05:38:16;97815.38;;;2.42;97.06
27712;BME280;2377;51.734;8.950;2022-12-05T05:40:43;97816.16;;;2.43;96.49
27712;BME280;2377;51.734;8.950;2022-12-05T05:43:10;97816.78;;;2.45;96.33
27712;BME280;2377;51.734;8.950;2022-12-05T05:45:37;97816.59;;;2.46;96.08
27712;BME280;2377;51.734;8.950;2022-12-05T05:48:07;97814.84;;;2.47;96.53
27712;BME280;2377;51.734;8.950;2022-12-05T05:50:35;97812.34;;;2.47;96.52
27712;BME280;2377;51.734;8.950;2022-12-05T05:53:02;97813.94;;;2.48;95.94
27712;BME280;2377;51.734;8.950;2022-12-05T05:55:31;97813.16;;;2.47;96.01
27712;BME280;2377;51.734;8.950;2022-12-05T05:57:58;97815.81;;;2.46;96.02
27712;BME280;2377;51.734;8.950;2022-12-05T06:00:25;97820.84;;;2.46;96.13
27712;BME280;2377;51.734;8.950;2022-12-05T06:02:52;97832.50;;;2.47;96.48
27712;BME280;2377;51.734;8.950;2022-12-05T06:05:20;97829.06;;;2.48;96.77
27712;BME280;2377;51.734;8.950;2022-12-05T06:07:47;97829.84;;;2.48;96.14
27712;BME280;2377;51.734;8.950;2022-12-05T06:10:14;97829.84;;;2.48;96.04
27712;BME280;2377;51.734;8.950;2022-12-05T06:12:43;97834.88;;;2.48;96.40
27712;BME280;2377;51.734;8.950;2022-12-05T06:15:10;97834.09;;;2.48;96.05
27712;BME280;2377;51.734;8.950;2022-12-05T06:17:38;97832.22;;;2.50;96.53
27712;BME280;2377;51.734;8.950;2022-12-05T06:20:07;97835.38;;;2.52;96.16
27712;BME280;2377;51.734;8.950;2022-12-05T06:22:35;97843.09;;;2.50;96.18
27712;BME280;2377;51.734;8.950;2022-12-05T06:25:03;97845.75;;;2.49;95.33
27712;BME280;2377;51.734;8.950;2022-12-05T06:27:30;97846.56;;;2.49;95.95
27712;BME280;2377;51.734;8.950;2022-12-05T06:29:59;97841.53;;;2.49;96.05
27712;BME280;2377;51.734;8.950;2022-12-05T06:32:28;97841.34;;;2.51;95.59
27712;BME280;2377;51.734;8.950;2022-12-05T06:34:55;97852.06;;;2.53;95.47
27712;BME280;2377;51.734;8.950;2022-12-05T06:37:23;97847.78;;;2.53;95.61
27712;BME280;2377;51.734;8.950;2022-12-05T06:39:50;97854.28;;;2.48;95.95
27712;BME280;2377;51.734;8.950;2022-12-05T06:42:18;97850.03;;;2.48;95.97
27712;BME280;2377;51.734;8.950;2022-12-05T06:44:47;97851.75;;;2.48;95.87
27712;BME280;2377;51.734;8.950;2022-12-05T06:47:15;97854.13;;;2.49;96.15
27712;BME280;2377;51.734;8.950;2022-12-05T06:49:42;97854.91;;;2.50;95.95
27712;BME280;2377;51.734;8.950;2022-12-05T06:52:10;97850.81;;;2.49;95.92
27712;BME280;2377;51.734;8.950;2022-12-05T06:54:37;97861.69;;;2.49;95.55
27712;BME280;2377;51.734;8.950;2022-12-05T06:57:04;97861.84;;;2.48;95.43
27712;BME280;2377;51.734;8.950;2022-12-05T06:59:31;97865.16;;;2.48;95.60
27712;BME280;2377;51.734;8.950;2022-12-05T07:01:59;97861.06;;;2.47;95.70
27712;BME280;2377;51.734;8.950;2022-12-05T07:04:26;97858.53;;;2.47;95.54
27712;BME280;2377;51.734;8.950;2022-12-05T07:06:54;97861.69;;;2.49;95.50
27712;BME280;2377;51.734;8.950;2022-12-05T07:09:24;97859.00;;;2.51;95.65
27712;BME280;2377;51.734;8.950;2022-12-05T07:12:11;97858.22;;;2.50;95.26
27712;BME280;2377;51.734;8.950;2022-12-05T07:14:38;97861.53;;;2.51;95.43
27712;BME280;2377;51.734;8.950;2022-12-05T07:17:06;97860.59;;;2.52;96.04
27712;BME280;2377;51.734;8.950;2022-12-05T07:19:34;97862.16;;;2.53;95.77
27712;BME280;2377;51.734;8.950;2022-12-05T07:22:02;97863.75;;;2.54;95.51
27712;BME280;2377;51.734;8.950;2022-12-05T07:24:30;97867.34;;;2.51;95.51
27712;BME280;2377;51.734;8.950;2022-12-05T07:26:57;97864.03;;;2.51;95.24
27712;BME280;2377;51.734;8.950;2022-12-05T07:29:24;97863.91;;;2.52;95.72
27712;BME280;2377;51.734;8.950;2022-12-05T07:31:53;97865.47;;;2.53;94.92
27712;BME280;2377;51.734;8.950;2022-12-05T07:34:20;97867.19;;;2.53;95.57
27712;BME280;2377;51.734;8.950;2022-12-05T07:36:49;97873.84;;;2.54;95.07
27712;BME280;2377;51.734;8.950;2022-12-05T07:39:16;97874.63;;;2.54;95.25
27712;BME280;2377;51.734;8.950;2022-12-05T07:41:43;97880.44;;;2.55;95.48
27712;BME280;2377;51.734;8.950;2022-12-05T07:44:11;97876.34;;;2.54;95.00
27712;BME280;2377;51.734;8.950;2022-12-05T07:46:39;97876.34;;;2.54;95.58
27712;BME280;2377;51.734;8.950;2022-12-05T07:49:07;97881.06;;;2.57;95.44
27712;BME280;2377;51.734;8.950;2022-12-05T07:51:34;97872.53;;;2.58;95.42
27712;BME280;2377;51.734;8.950;2022-12-05T07:54:03;97874.13;;;2.59;95.36
27712;BME280;2377;51.734;8.950;2022-12-05T07:56:31;97877.44;;;2.60;94.80
27712;BME280;2377;51.734;8.950;2022-12-05T07:58:59;97872.41;;;2.60;95.23
27712;BME280;2377;51.734;8.950;2022-12-05T08:01:29;97875.69;;;2.60;94.92
27712;BME280;2377;51.734;8.950;2022-12-05T08:03:58;97881.38;;;2.62;94.95
27712;BME280;2377;51.734;8.950;2022-12-05T08:06:30;97881.38;;;2.62;95.34
27712;BME280;2377;51.734;8.950;2022-12-05T08:08:59;97877.13;;;2.63;94.98
27712;BME280;2377;51.734;8.950;2022-12-05T08:11:31;97886.91;;;2.66;95.02
27712;BME280;2377;51.734;8.950;2022-12-05T08:14:01;97884.38;;;2.66;95.30
27712;BME280;2377;51.734;8.950;2022-12-05T08:16:31;97882.66;;;2.66;94.98
27712;BME280;2377;51.734;8.950;2022-12-05T08:19:00;97882.94;;;2.63;94.92
27712;BME280;2377;51.734;8.950;2022-12-05T08:21:28;97887.22;;;2.63;94.50
27712;BME280;2377;51.734;8.950;2022-12-05T08:23:56;97889.09;;;2.61;94.40
27712;BME280;2377;51.734;8.950;2022-12-05T08:26:28;97891.81;;;2.59;94.54
27712;BME280;2377;51.734;8.950;2022-12-05T08:28:59;97898.09;;;2.55;94.56
27712;BME280;2377;51.734;8.950;2022-12-05T08:31:29;97898.72;;;2.57;95.09
27712;BME280;2377;51.734;8.950;2022-12-05T08:33:58;97900.00;;;2.61;95.05
27712;BME280;2377;51.734;8.950;2022-12-05T08:36:28;97894.78;;;2.63;94.22
27712;BME280;2377;51.734;8.950;2022-12-05T08:38:57;97904.88;;;2.63;95.21
27712;BME280;2377;51.734;8.950;2022-12-05T08:41:25;97915.75;;;2.63;94.39
27712;BME280;2377;51.734;8.950;2022-12-05T08:43:55;97909.78;;;2.64;95.14
27712;BME280;2377;51.734;8.950;2022-12-05T08:46:23;97913.72;;;2.67;94.88
27712;BME280;2377;51.734;8.950;2022-12-05T08:48:50;97915.13;;;2.69;94.82
27712;BME280;2377;51.734;8.950;2022-12-05T08:51:18;97931.22;;;2.68;94.19
27712;BME280;2377;51.734;8.950;2022-12-05T08:53:45;97921.75;;;2.62;94.80
27712;BME280;2377;51.734;8.950;2022-12-05T08:56:13;97924.75;;;2.66;95.39
27712;BME280;2377;51.734;8.950;2022-12-05T08:58:40;97916.88;;;2.69;94.37
27712;BME280;2377;51.734;8.950;2022-12-05T09:01:12;97918.13;;;2.73;94.28
27712;BME280;2377;51.734;8.950;2022-12-05T09:03:41;97923.97;;;2.73;94.61
27712;BME280;2377;51.734;8.950;2022-12-05T09:06:12;97921.09;;;2.77;94.91
27712;BME280;2377;51.734;8.950;2022-12-05T09:08:40;97916.06;;;2.77;94.16
27712;BME280;2377;51.734;8.950;2022-12-05T09:11:11;97928.69;;;2.77;94.66
27712;BME280;2377;51.734;8.950;2022-12-05T09:13:39;97926.78;;;2.79;94.11
27712;BME280;2377;51.734;8.950;2022-12-05T09:16:10;97928.06;;;2.83;94.58
27712;BME280;2377;51.734;8.950;2022-12-05T09:18:38;97928.69;;;2.85;94.45
27712;BME280;2377;51.734;8.950;2022-12-05T09:21:07;97925.06;;;2.87;93.87
27712;BME280;2377;51.734;8.950;2022-12-05T09:23:35;97925.50;;;2.91;94.46
27712;BME280;2377;51.734;8.950;2022-12-05T09:26:02;97927.09;;;2.92;94.35
27712;BME280;2377;51.734;8.950;2022-12-05T09:28:31;97935.28;;;2.94;94.19
27712;BME280;2377;51.734;8.950;2022-12-05T09:31:00;97934.97;;;2.97;94.51
27712;BME280;2377;51.734;8.950;2022-12-05T09:33:32;97933.38;;;2.96;93.82
27712;BME280;2377;51.734;8.950;2022-12-05T09:36:02;97931.66;;;2.96;93.61
27712;BME280;2377;51.734;8.950;2022-12-05T09:38:29;97934.78;;;2.99;94.10
27712;BME280;2377;51.734;8.950;2022-12-05T09:41:15;97936.22;;;3.01;93.78
27712;BME280;2377;51.734;8.950;2022-12-05T09:43:56;97936.22;;;3.01;93.70
27712;BME280;2377;51.734;8.950;2022-12-05T09:46:33;97936.22;;;3.01;93.87
27712;BME280;2377;51.734;8.950;2022-12-05T09:49:07;97935.41;;;3.01;93.73
27712;BME280;2377;51.734;8.950;2022-12-05T09:51:43;97931.34;;;3.00;93.67
27712;BME280;2377;51.734;8.950;2022-12-05T09:54:13;97931.19;;;3.01;93.96
27712;BME280;2377;51.734;8.950;2022-12-05T09:56:43;97932.59;;;3.04;94.07
27712;BME280;2377;51.734;8.950;2022-12-05T09:59:13;97933.84;;;3.00;93.70
27712;BME280;2377;51.734;8.950;2022-12-05T10:01:51;97931.47;;;2.98;93.85
27712;BME280;2377;51.734;8.950;2022-12-05T10:04:40;97929.59;;;3.00;93.75
27712;BME280;2377;51.734;8.950;2022-12-05T10:07:20;97926.72;;;3.03;93.31
27712;BME280;2377;51.734;8.950;2022-12-05T10:10:06;97925.81;;;3.04;93.56
27712;BME280;2377;51.734;8.950;2022-12-05T10:13:00;97925.81;;;3.04;93.42
27712;BME280;2377;51.734;8.950;2022-12-05T10:15:39;97928.97;;;3.06;93.48
27712;BME280;2377;51.734;8.950;2022-12-05T10:18:16;97924.84;;;3.05;94.17
27712;BME280;2377;51.734;8.950;2022-12-05T10:20:56;97922.00;;;3.08;93.77
27712;BME280;2377;51.734;8.950;2022-12-05T10:23:31;97920.41;;;3.07;93.15
27712;BME280;2377;51.734;8.950;2022-12-05T10:26:04;97926.09;;;3.09;93.43
27712;BME280;2377;51.734;8.950;2022-12-05T10:28:40;97913.47;;;3.09;93.75
27712;BME280;2377;51.734;8.950;2022-12-05T10:31:13;97923.91;;;3.06;93.75
27712;BME280;2377;51.734;8.950;2022-12-05T10:33:49;97919.63;;;3.07;93.87
27712;BME280;2377;51.734;8.950;2022-12-05T10:36:23;97921.19;;;3.08;93.33
27712;BME280;2377;51.734;8.950;2022-12-05T10:38:52;97920.41;;;3.07;94.04
27712;BME280;2377;51.734;8.950;2022-12-05T10:41:22;97916.63;;;3.11;93.90
27712;BME280;2377;51.734;8.950;2022-12-05T10:43:50;97915.84;;;3.11;93.25
27712;BME280;2377;51.734;8.950;2022-12-05T10:46:17;97922.63;;;3.10;92.76
27712;BME280;2377;51.734;8.950;2022-12-05T10:48:45;97914.25;;;3.10;92.67
27712;BME280;2377;51.734;8.950;2022-12-05T10:51:15;97913.47;;;3.09;92.76
27712;BME280;2377;51.734;8.950;2022-12-05T10:53:47;97914.09;;;3.11;93.18
27712;BME280;2377;51.734;8.950;2022-12-05T10:56:37;97909.69;;;3.13;93.10
27712;BME280;2377;51.734;8.950;2022-12-05T10:59:07;97913.78;;;3.14;93.64
27712;BME280;2377;51.734;8.950;2022-12-05T11:01:36;97912.66;;;3.17;93.86
27712;BME280;2377;51.734;8.950;2022-12-05T11:04:19;97913.28;;;3.19;93.06
27712;BME280;2377;51.734;8.950;2022-12-05T11:06:54;97907.47;;;3.18;93.60
27712;BME280;2377;51.734;8.950;2022-12-05T11:09:26;97909.19;;;3.18;93.01
27712;BME280;2377;51.734;8.950;2022-12-05T11:12:12;97906.69;;;3.18;92.83
27712;BME280;2377;51.734;8.950;2022-12-05T11:14:54;97903.19;;;3.19;93.04
27712;BME280;2377;51.734;8.950;2022-12-05T11:17:26;97898.91;;;3.20;93.21
27712;BME280;2377;51.734;8.950;2022-12-05T11:19:53;97903.03;;;3.21;92.72
27712;BME280;2377;51.734;8.950;2022-12-05T11:22:31;97900.97;;;3.24;92.60
27712;BME280;2377;51.734;8.950;2022-12-05T11:25:25;97900.66;;;3.27;93.14
27712;BME280;2377;51.734;8.950;2022-12-05T11:27:55;97899.53;;;3.30;92.83
27712;BME280;2377;51.734;8.950;2022-12-05T11:30:27;97900.75;;;3.34;92.65
27712;BME280;2377;51.734;8.950;2022-12-05T11:33:17;97898.88;;;3.36;92.22
27712;BME280;2377;51.734;8.950;2022-12-05T11:35:46;97902.81;;;3.38;91.78
27712;BME280;2377;51.734;8.950;2022-12-05T11:38:18;97904.06;;;3.43;92.87
27712;BME280;2377;51.734;8.950;2022-12-05T11:40:54;97898.84;;;3.44;92.31
27712;BME280;2377;51.734;8.950;2022-12-05T11:43:50;97895.34;;;3.45;91.81
27712;BME280;2377;51.734;8.950;2022-12-05T11:46:32;97893.47;;;3.47;92.46
27712;BME280;2377;51.734;8.950;2022-12-05T11:49:24;97889.38;;;3.46;92.01
27712;BME280;2377;51.734;8.950;2022-12-05T11:52:06;97890.97;;;3.39;92.13
27712;BME280;2377;51.734;8.950;2022-12-05T11:54:52;97886.09;;;3.37;92.72
27712;BME280;2377;51.734;8.950;2022-12-05T11:57:38;97889.69;;;3.43;92.67
27712;BME280;2377;51.734;8.950;2022-12-05T12:00:21;97889.69;;;3.43;91.42
27712;BME280;2377;51.734;8.950;2022-12-05T12:03:31;97892.84;;;3.45;92.18
27712;BME280;2377;51.734;8.950;2022-12-05T12:06:24;97892.53;;;3.48;91.78
27712;BME280;2377;51.734;8.950;2022-12-05T12:09:22;97883.00;;;3.50;91.27
27712;BME280;2377;51.734;8.950;2022-12-05T12:12:03;97883.97;;;3.49;92.10
27712;BME280;2377;51.734;8.950;2022-12-05T12:14:44;97888.88;;;3.51;92.09
27712;BME280;2377;51.734;8.950;2022-12-05T12:17:28;97896.13;;;3.54;91.55
27712;BME280;2377;51.734;8.950;2022-12-05T12:20:38;97895.78;;;3.57;91.34
27712;BME280;2377;51.734;8.950;2022-12-05T12:23:31;97894.84;;;3.58;91.47
27712;BME280;2377;51.734;8.950;2022-12-05T12:26:11;97894.06;;;3.57;91.56
27712;BME280;2377;51.734;8.950;2022-12-05T12:28:51;97899.91;;;3.58;91.55
27712;BME280;2377;51.734;8.950;2022-12-05T12:31:57;97901.66;;;3.57;90.97
27712;BME280;2377;51.734;8.950;2022-12-05T12:35:02;97903.53;;;3.55;91.43
27712;BME280;2377;51.734;8.950;2022-12-05T12:37:49;97901.31;;;3.52;90.51
27712;BME280;2377;51.734;8.950;2022-12-05T12:40:21;97903.22;;;3.50;90.82
27712;BME280;2377;51.734;8.950;2022-12-05T12:43:00;97893.47;;;3.47;90.71
27712;BME280;2377;51.734;8.950;2022-12-05T12:45:58;97889.38;;;3.46;90.59
27712;BME280;2377;51.734;8.950;2022-12-05T12:48:57;97889.81;;;3.50;91.31
27712;BME280;2377;51.734;8.950;2022-12-05T12:51:30;97878.31;;;3.47;90.98
27712;BME280;2377;51.734;8.950;2022-12-05T12:54:42;97881.50;;;3.41;91.06
27712;BME280;2377;51.734;8.950;2022-12-05T12:57:22;97885.88;;;3.47;91.72
27712;BME280;2377;51.734;8.950;2022-12-05T13:00:05;97885.38;;;3.52;90.96
27712;BME280;2377;51.734;8.950;2022-12-05T13:02:42;97887.63;;;3.47;90.43
27712;BME280;2377;51.734;8.950;2022-12-05T13:05:24;97895.69;;;3.42;91.33
27712;BME280;2377;51.734;8.950;2022-12-05T13:08:00;97898.22;;;3.42;91.13
27712;BME280;2377;51.734;8.950;2022-12-05T13:10:34;97897.09;;;3.45;90.85
27712;BME280;2377;51.734;8.950;2022-12-05T13:13:06;97895.34;;;3.45;91.15
27712;BME280;2377;51.734;8.950;2022-12-05T13:15:41;97903.91;;;3.44;90.81
27712;BME280;2377;51.734;8.950;2022-12-05T13:18:16;97899.34;;;3.39;90.72
27712;BME280;2377;51.734;8.950;2022-12-05T13:20:49;97904.53;;;3.38;90.73
27712;BME280;2377;51.734;8.950;2022-12-05T13:23:22;97899.06;;;3.34;90.65
27712;BME280;2377;51.734;8.950;2022-12-05T13:25:52;97904.88;;;3.35;90.56
27712;BME280;2377;51.734;8.950;2022-12-05T13:28:29;97897.31;;;3.35;91.21
27712;BME280;2377;51.734;8.950;2022-12-05T13:30:59;97905.22;;;3.32;91.43
27712;BME280;2377;51.734;8.950;2022-12-05T13:33:35;97892.59;;;3.32;91.43
27712;BME280;2377;51.734;8.950;2022-12-05T13:36:12;97898.91;;;3.28;91.29
27712;BME280;2377;51.734;8.950;2022-12-05T13:39:00;97893.84;;;3.28;90.86
27712;BME280;2377;51.734;8.950;2022-12-05T13:41:49;97897.31;;;3.27;91.29
27712;BME280;2377;51.734;8.950;2022-12-05T13:44:41;97903.34;;;3.26;91.48
27712;BME280;2377;51.734;8.950;2022-12-05T13:47:25;97898.13;;;3.27;91.50
27712;BME280;2377;51.734;8.950;2022-12-05T13:50:01;97901.28;;;3.29;90.92
27712;BME280;2377;51.734;8.950;2022-12-05T13:52:40;97892.91;;;3.29;90.69
27712;BME280;2377;51.734;8.950;2022-12-05T13:55:23;97899.69;;;3.28;91.61
27712;BME280;2377;51.734;8.950;2022-12-05T13:57:55;97899.84;;;3.27;90.67